CNT5 weather

Lake Muskoka/Dudley Bay Seaplane Base
Ontario, Canada

Public forecast

Using degrees Celsius for public forecast. Weather courtesy of forecast.io.

METAR (pilot weather report)

Closest report is Muskoka Airport, 13.1 nm (24.2 km) ESE. Retrieved 2019/05/27 12:00 UTC (32 minutes ago):

CYQA 271200Z AUTO 34005KT 330V040 9SM CLR 11/08 A3007 RMK SLP188

TAF (pilot weather forecast)

Closest forecast is Muskoka Airport, 13.1 nm (24.2 km) ESE. Retrieved 2019/05/27 12:39 UTC (0 seconds ago):

TAF CYQA 271138Z 2712/2724 33005KT P6SM FEW030 FM271800 32008KT P6SM BKN040 FM272100 30008KT P6SM SCT070 RMK FCST BASED ON AUTO OBS. NXT FCST BY 271400Z